Terminal Aerodrome Forecast
Issued by NWS

Home | Current Version | Previous Version | Text Only | Print | Product List | Glossary On
Versions: 1 2 3 4 5 6 7 8 9 10 11 12 13 14 15 16 17 18 19 20 21 22 23 24 25
000
FTPA31 PHFO 161700 RRA
TAFJHM
TAF
PHJH 161746Z 1618/1718 04015G23KT P6SM VCSH SCT035 SCT060
      TEMPO 1618/1620 04012KT P6SM -SHRA SCT025 BKN040
     FM170800 05015KT P6SM VCSH SCT030 BKN050
      AMD NOT SKED AFT 170400=

USA.gov is the U.S. government's official web portal to all federal, state and local government web resources and services.